createdAt,value
2024-01-11T00:00:01.035Z,-5.01
2024-01-11T00:02:28.605Z,-5.03
2024-01-11T00:05:00.847Z,-5.03
2024-01-11T00:07:28.097Z,-5.03
2024-01-11T00:09:57.530Z,-5.02
2024-01-11T00:12:29.186Z,-5.03
2024-01-11T00:14:57.032Z,-5.04
2024-01-11T00:17:24.253Z,-5.04
2024-01-11T00:19:52.002Z,-5.04
2024-01-11T00:22:19.154Z,-5.06
2024-01-11T00:24:46.632Z,-5.04
2024-01-11T00:27:14.609Z,-5.06
2024-01-11T00:29:42.179Z,-5.08
2024-01-11T00:32:09.155Z,-5.11
2024-01-11T00:34:37.230Z,-5.10
2024-01-11T00:37:05.947Z,-5.10
2024-01-11T00:42:16.654Z,-5.08
2024-01-11T00:44:46.021Z,-5.11
2024-01-11T00:47:38.987Z,-5.12
2024-01-11T00:50:32.835Z,-5.10
2024-01-11T00:53:00.025Z,-5.11
2024-01-11T00:55:28.184Z,-5.14
2024-01-11T01:01:57.759Z,-5.16
2024-01-11T01:10:21.432Z,-5.16
2024-01-11T01:12:51.857Z,-5.17
2024-01-11T01:15:29.615Z,-5.19
2024-01-11T01:18:23.165Z,-5.19
2024-01-11T01:20:50.364Z,-5.17
2024-01-11T01:23:19.115Z,-5.21
2024-01-11T01:25:46.274Z,-5.20
2024-01-11T01:28:13.813Z,-5.19
2024-01-11T01:31:07.245Z,-5.17
2024-01-11T01:33:34.811Z,-5.18
2024-01-11T01:36:02.013Z,-5.17
2024-01-11T01:39:02.662Z,-5.19
2024-01-11T01:41:54.584Z,-5.19
2024-01-11T01:44:30.364Z,-5.21
2024-01-11T01:46:59.016Z,-5.25
2024-01-11T01:49:27.034Z,-5.26
2024-01-11T01:54:41.897Z,-5.24
2024-01-11T01:57:12.832Z,-5.25
2024-01-11T01:59:47.043Z,-5.24
2024-01-11T02:05:48.187Z,-5.25
2024-01-11T02:08:18.743Z,-5.24
2024-01-11T02:10:47.225Z,-5.27
2024-01-11T02:13:39.961Z,-5.30
2024-01-11T02:16:19.880Z,-5.31
2024-01-11T02:19:14.878Z,-5.31
2024-01-11T02:21:49.498Z,-5.30
2024-01-11T02:24:16.760Z,-5.26
2024-01-11T02:27:11.743Z,-5.31
2024-01-11T02:30:55.501Z,-5.30
2024-01-11T02:36:56.783Z,-5.33
2024-01-11T02:39:26.004Z,-5.32
2024-01-11T02:41:56.961Z,-5.31
2024-01-11T02:44:24.554Z,-5.33
2024-01-11T02:47:22.804Z,-5.30
2024-01-11T02:49:51.154Z,-5.28
2024-01-11T02:52:51.701Z,-5.28
2024-01-11T02:55:19.204Z,-5.28
2024-01-11T02:57:46.701Z,-5.25
2024-01-11T03:00:42.552Z,-5.26
2024-01-11T03:03:34.723Z,-5.28
2024-01-11T03:06:15.540Z,-5.26
2024-01-11T03:09:03.458Z,-5.24
2024-01-11T03:11:30.829Z,-5.25
2024-01-11T03:13:57.916Z,-5.26
2024-01-11T03:16:30.407Z,-5.28
2024-01-11T03:19:04.418Z,-5.28
2024-01-11T03:21:32.268Z,-5.30
2024-01-11T03:24:00.785Z,-5.28
2024-01-11T03:26:28.209Z,-5.34
2024-01-11T03:28:55.277Z,-5.34
2024-01-11T03:31:22.673Z,-5.34
2024-01-11T03:33:49.790Z,-5.38
2024-01-11T03:36:17.669Z,-5.37
2024-01-11T03:38:44.685Z,-5.37
2024-01-11T03:41:12.291Z,-5.36
2024-01-11T03:43:39.470Z,-5.35
2024-01-11T03:46:31.713Z,-5.33
2024-01-11T03:49:19.374Z,-5.32
2024-01-11T03:52:11.686Z,-5.30
2024-01-11T03:55:03.697Z,-5.32
2024-01-11T03:57:56.509Z,-5.38
2024-01-11T04:00:23.592Z,-5.42
2024-01-11T04:02:50.890Z,-5.46
2024-01-11T04:05:43.523Z,-5.50
2024-01-11T04:11:48.613Z,-5.42
2024-01-11T04:14:15.946Z,-5.44
2024-01-11T04:16:46.081Z,-5.45
2024-01-11T04:19:14.082Z,-5.43
2024-01-11T04:21:41.223Z,-5.44
2024-01-11T04:24:08.770Z,-5.44
2024-01-11T04:27:25.448Z,-5.44
2024-01-11T04:29:52.970Z,-5.44
2024-01-11T04:32:28.691Z,-5.42
2024-01-11T04:34:58.266Z,-5.48
2024-01-11T04:37:25.240Z,-5.49
2024-01-11T04:40:01.302Z,-5.47
2024-01-11T04:42:30.126Z,-5.45
2024-01-11T04:44:57.429Z,-5.44
2024-01-11T04:47:24.691Z,-5.45
2024-01-11T04:49:53.951Z,-5.45
2024-01-11T04:52:20.949Z,-5.45
2024-01-11T04:55:02.949Z,-5.41
2024-01-11T04:57:33.374Z,-5.45
2024-01-11T05:00:03.787Z,-5.45
2024-01-11T05:02:31.946Z,-5.46
2024-01-11T05:04:59.793Z,-5.43
2024-01-11T05:07:31.448Z,-5.44
2024-01-11T05:09:59.944Z,-5.43
2024-01-11T05:12:48.457Z,-5.43
2024-01-11T05:15:15.881Z,-5.44
2024-01-11T05:17:46.915Z,-5.42
2024-01-11T05:20:49.157Z,-5.43
2024-01-11T05:23:16.414Z,-5.44
2024-01-11T05:26:09.796Z,-5.48
2024-01-11T05:29:53.371Z,-5.47
2024-01-11T05:32:20.735Z,-5.50
2024-01-11T05:35:06.758Z,-5.56
2024-01-11T05:37:34.297Z,-5.60
2024-01-11T05:40:01.582Z,-5.58
2024-01-11T05:42:29.370Z,-5.53
2024-01-11T05:45:10.457Z,-5.48
2024-01-11T05:47:38.389Z,-5.49
2024-01-11T05:52:49.956Z,-5.49
2024-01-11T05:55:17.193Z,-5.50
2024-01-11T05:57:44.448Z,-5.50
2024-01-11T06:00:13.637Z,-5.48
2024-01-11T06:02:49.049Z,-5.47
2024-01-11T06:05:16.582Z,-5.43
2024-01-11T06:11:27.937Z,-5.45
2024-01-11T06:13:55.443Z,-5.45
2024-01-11T06:16:26.944Z,-5.46
2024-01-11T06:18:54.678Z,-5.47
2024-01-11T06:21:21.692Z,-5.47
2024-01-11T06:24:14.469Z,-5.46
2024-01-11T06:26:48.284Z,-5.44
2024-01-11T06:29:40.774Z,-5.42
2024-01-11T06:32:08.730Z,-5.43
2024-01-11T06:35:53.495Z,-5.44
2024-01-11T06:38:20.577Z,-5.45
2024-01-11T06:40:48.689Z,-5.45
2024-01-11T06:43:16.388Z,-5.45
2024-01-11T06:45:55.926Z,-5.45
2024-01-11T06:48:23.163Z,-5.44
2024-01-11T06:50:50.614Z,-5.44
2024-01-11T06:53:47.768Z,-5.44
2024-01-11T06:56:21.926Z,-5.43
2024-01-11T06:59:22.606Z,-5.42
2024-01-11T07:01:52.945Z,-5.41
2024-01-11T07:04:20.668Z,-5.43
2024-01-11T07:06:50.285Z,-5.48
2024-01-11T07:09:18.127Z,-5.59
2024-01-11T07:11:45.773Z,-5.59
2024-01-11T07:14:14.729Z,-5.54
2024-01-11T07:16:42.111Z,-5.51
2024-01-11T07:19:09.199Z,-5.48
2024-01-11T07:21:36.973Z,-5.49
2024-01-11T07:24:04.969Z,-5.50
2024-01-11T07:26:32.623Z,-5.51
2024-01-11T07:28:59.857Z,-5.51
2024-01-11T07:31:28.463Z,-5.53
2024-01-11T07:34:10.143Z,-5.59
2024-01-11T07:36:40.683Z,-5.62
2024-01-11T07:39:10.861Z,-5.62
2024-01-11T07:41:38.319Z,-5.62
2024-01-11T07:44:08.120Z,-5.60
2024-01-11T07:46:42.663Z,-5.55
2024-01-11T07:49:21.866Z,-5.49
2024-01-11T07:51:50.112Z,-5.45
2024-01-11T07:54:17.291Z,-5.43
2024-01-11T07:56:44.820Z,-5.39
2024-01-11T07:59:15.733Z,-5.37
2024-01-11T08:01:44.816Z,-5.34
2024-01-11T08:04:11.950Z,-5.33
2024-01-11T08:06:48.345Z,-5.31
2024-01-11T08:15:35.508Z,-5.24
2024-01-11T08:18:02.709Z,-5.27
2024-01-11T08:20:30.156Z,-5.20
2024-01-11T08:22:58.007Z,-5.17
2024-01-11T08:25:36.733Z,-5.13
2024-01-11T08:28:05.025Z,-5.12
2024-01-11T08:30:32.403Z,-5.12
2024-01-11T08:32:59.923Z,-5.08
2024-01-11T08:35:29.078Z,-5.02
2024-01-11T08:37:57.848Z,-5.03
2024-01-11T08:40:25.543Z,-5.02
2024-01-11T08:42:53.832Z,-5.02
2024-01-11T08:45:24.090Z,-4.96
2024-01-11T08:47:53.727Z,-4.96
2024-01-11T08:50:24.272Z,-4.94
2024-01-11T08:52:55.388Z,-4.88
2024-01-11T08:55:23.133Z,-4.81
2024-01-11T08:57:53.286Z,-4.75
2024-01-11T09:00:20.668Z,-4.73
2024-01-11T09:02:49.585Z,-4.68
2024-01-11T09:05:17.780Z,-4.66
2024-01-11T09:07:46.374Z,-4.64
2024-01-11T09:10:14.399Z,-4.66
2024-01-11T09:12:41.780Z,-4.69
2024-01-11T09:15:09.287Z,-4.69
2024-01-11T09:17:54.924Z,-4.67
2024-01-11T09:20:23.266Z,-4.72
2024-01-11T09:22:50.573Z,-4.78
2024-01-11T09:25:17.799Z,-4.85
2024-01-11T09:27:50.661Z,-4.86
2024-01-11T09:30:18.233Z,-4.83
2024-01-11T09:32:48.909Z,-4.86
2024-01-11T09:35:16.885Z,-4.83
2024-01-11T09:37:47.292Z,-4.79
2024-01-11T09:40:17.068Z,-4.80
2024-01-11T09:42:45.561Z,-4.79
2024-01-11T09:45:19.841Z,-4.74
2024-01-11T09:47:51.721Z,-4.71
2024-01-11T09:50:21.928Z,-4.66
2024-01-11T09:52:51.581Z,-4.61
2024-01-11T09:55:19.653Z,-4.55
2024-01-11T09:57:49.708Z,-4.47
2024-01-11T10:00:24.687Z,-4.44
2024-01-11T10:02:53.231Z,-4.41
2024-01-11T10:05:20.711Z,-4.35
2024-01-11T10:07:48.211Z,-4.34
2024-01-11T10:10:24.367Z,-4.31
2024-01-11T10:12:51.669Z,-4.26
2024-01-11T10:15:26.236Z,-4.26
2024-01-11T10:18:04.842Z,-4.23
2024-01-11T10:20:34.368Z,-4.24
2024-01-11T10:23:04.430Z,-4.15
2024-01-11T10:25:31.612Z,-4.10
2024-01-11T10:28:03.771Z,-4.11
2024-01-11T10:30:40.837Z,-4.08
2024-01-11T10:33:09.102Z,-4.05
2024-01-11T10:35:37.273Z,-3.97
2024-01-11T10:38:12.468Z,-3.90
2024-01-11T10:41:29.214Z,-3.84
2024-01-11T10:44:04.252Z,-3.77
2024-01-11T10:46:35.823Z,-3.73
2024-01-11T10:49:05.694Z,-3.68
2024-01-11T10:51:33.923Z,-3.62
2024-01-11T10:54:29.044Z,-3.55
2024-01-11T10:57:01.130Z,-3.50
2024-01-11T10:59:42.106Z,-3.45
2024-01-11T11:02:27.511Z,-3.41
2024-01-11T11:05:59.796Z,-3.39
2024-01-11T11:08:28.482Z,-3.33
2024-01-11T11:11:04.036Z,-3.28
2024-01-11T11:14:08.926Z,-3.23
2024-01-11T11:16:36.602Z,-3.19
2024-01-11T11:19:04.580Z,-3.14
2024-01-11T11:24:07.435Z,-3.04
2024-01-11T11:27:28.778Z,-3.04
2024-01-11T11:29:57.018Z,-3.02
2024-01-11T11:32:40.261Z,-3.03
2024-01-11T11:35:09.613Z,-2.98
2024-01-11T11:40:50.078Z,-2.89
2024-01-11T11:43:31.282Z,-2.89
2024-01-11T11:46:08.557Z,-2.87
2024-01-11T11:49:02.991Z,-2.85
2024-01-11T11:51:30.896Z,-2.80
2024-01-11T11:54:11.541Z,-2.78
2024-01-11T11:57:07.659Z,-2.73
2024-01-11T11:59:37.616Z,-2.74
2024-01-11T12:02:13.034Z,-2.71
2024-01-11T12:04:48.920Z,-2.68
2024-01-11T12:07:17.161Z,-2.63
2024-01-11T12:09:44.420Z,-2.66
2024-01-11T12:12:15.837Z,-2.58
2024-01-11T12:15:19.800Z,-2.50
2024-01-11T12:18:42.360Z,-2.48
2024-01-11T12:21:38.566Z,-2.43
2024-01-11T12:24:57.440Z,-2.43
2024-01-11T12:27:49.422Z,-2.38
2024-01-11T12:30:33.726Z,-2.35
2024-01-11T12:33:22.005Z,-2.32
2024-01-11T12:35:50.060Z,-2.29
2024-01-11T12:39:10.542Z,-2.28
2024-01-11T12:41:44.346Z,-2.23
2024-01-11T12:44:19.976Z,-2.23
2024-01-11T12:46:52.033Z,-2.20
2024-01-11T12:50:08.968Z,-2.16
2024-01-11T12:52:36.315Z,-2.14
2024-01-11T12:55:05.521Z,-2.11
2024-01-11T12:58:06.875Z,-2.08
2024-01-11T13:04:06.970Z,-2.04
2024-01-11T13:06:35.667Z,-2.03
2024-01-11T13:09:54.340Z,-2.00
2024-01-11T13:13:11.660Z,-1.98
2024-01-11T13:15:42.310Z,-1.99
2024-01-11T13:18:36.638Z,-1.98
2024-01-11T13:21:04.379Z,-1.93
2024-01-11T13:23:34.960Z,-1.92
2024-01-11T13:26:52.309Z,-1.93
2024-01-11T13:29:19.512Z,-1.92
2024-01-11T13:32:37.317Z,-1.85
2024-01-11T13:35:29.404Z,-1.86
2024-01-11T13:39:38.270Z,-1.84
2024-01-11T13:42:14.099Z,-1.87
2024-01-11T13:45:10.001Z,-1.88
2024-01-11T13:47:37.970Z,-1.89
2024-01-11T13:50:39.239Z,-1.90
2024-01-11T13:53:57.412Z,-1.84
2024-01-11T13:56:54.944Z,-1.82
2024-01-11T13:59:22.551Z,-1.82
2024-01-11T14:01:52.825Z,-1.80
2024-01-11T14:04:46.895Z,-1.80
2024-01-11T14:07:39.003Z,-1.82
2024-01-11T14:10:09.282Z,-1.86
2024-01-11T14:12:51.263Z,-1.84
2024-01-11T14:15:43.424Z,-1.81
2024-01-11T14:18:12.218Z,-1.77
2024-01-11T14:22:13.329Z,-1.77
2024-01-11T14:25:31.651Z,-1.75
2024-01-11T14:28:00.767Z,-1.77
2024-01-11T14:30:53.637Z,-1.74
2024-01-11T14:33:46.121Z,-1.81
2024-01-11T14:36:15.491Z,-1.70
2024-01-11T14:38:43.926Z,-1.71
2024-01-11T14:41:11.506Z,-1.74
2024-01-11T14:43:38.497Z,-1.79
2024-01-11T14:49:36.344Z,-1.79
2024-01-11T14:52:04.578Z,-1.79
2024-01-11T14:54:31.688Z,-1.81
2024-01-11T14:56:59.573Z,-1.82
2024-01-11T14:59:26.698Z,-1.82
2024-01-11T15:01:54.071Z,-1.76
2024-01-11T15:04:46.620Z,-1.74
2024-01-11T15:07:14.240Z,-1.72
2024-01-11T15:09:50.500Z,-1.75
2024-01-11T15:12:23.103Z,-1.76
2024-01-11T15:15:19.293Z,-1.70
2024-01-11T15:17:48.065Z,-1.70
2024-01-11T15:20:28.503Z,-1.64
2024-01-11T15:23:29.932Z,-1.61
2024-01-11T15:26:49.840Z,-1.64
2024-01-11T15:32:51.727Z,-1.64
2024-01-11T15:35:44.329Z,-1.57
2024-01-11T15:38:14.982Z,-1.54
2024-01-11T15:41:59.453Z,-1.55
2024-01-11T15:44:31.488Z,-1.57
2024-01-11T15:50:49.371Z,-1.53
2024-01-11T15:54:34.321Z,-1.57
2024-01-11T15:57:31.258Z,-1.59
2024-01-11T16:03:31.132Z,-1.54
2024-01-11T16:05:58.446Z,-1.58
2024-01-11T16:08:51.767Z,-1.54
2024-01-11T16:11:20.458Z,-1.53
2024-01-11T16:13:49.723Z,-1.51
2024-01-11T16:16:17.745Z,-1.51
2024-01-11T16:18:45.674Z,-1.45
2024-01-11T16:21:12.918Z,-1.40
2024-01-11T16:23:40.707Z,-1.41
2024-01-11T16:26:10.690Z,-1.38
2024-01-11T16:28:38.554Z,-1.39
2024-01-11T16:31:06.237Z,-1.39
2024-01-11T16:33:34.052Z,-1.41
2024-01-11T16:36:04.217Z,-1.39
2024-01-11T16:38:31.777Z,-1.35
2024-01-11T16:40:59.704Z,-1.36
2024-01-11T16:43:35.889Z,-1.38
2024-01-11T16:46:03.545Z,-1.36
2024-01-11T16:48:31.398Z,-1.33
2024-01-11T16:51:04.691Z,-1.30
2024-01-11T16:53:35.498Z,-1.27
2024-01-11T16:56:14.950Z,-1.28
2024-01-11T16:59:03.390Z,-1.25
2024-01-11T17:01:31.410Z,-1.27
2024-01-11T17:04:00.390Z,-1.24
2024-01-11T17:06:27.856Z,-1.24
2024-01-11T17:08:55.350Z,-1.22
2024-01-11T17:11:26.492Z,-1.26
2024-01-11T17:13:57.365Z,-1.29
2024-01-11T17:16:52.297Z,-1.27
2024-01-11T17:19:22.828Z,-1.24
2024-01-11T17:21:53.787Z,-1.22
2024-01-11T17:24:21.818Z,-1.22
2024-01-11T17:26:51.273Z,-1.22
2024-01-11T17:29:18.763Z,-1.19
2024-01-11T17:31:47.074Z,-1.22
2024-01-11T17:34:40.141Z,-1.23
2024-01-11T17:37:11.083Z,-1.24
2024-01-11T17:39:55.318Z,-1.22
2024-01-11T17:42:47.725Z,-1.20
2024-01-11T17:45:18.927Z,-1.20
2024-01-11T17:47:58.544Z,-1.22
2024-01-11T17:50:35.252Z,-1.26
2024-01-11T17:53:53.720Z,-1.23
2024-01-11T17:56:46.821Z,-1.22
2024-01-11T17:59:30.710Z,-1.25
2024-01-11T18:02:24.103Z,-1.25
2024-01-11T18:04:51.390Z,-1.20
2024-01-11T18:07:20.190Z,-1.27
2024-01-11T18:09:47.430Z,-1.26
2024-01-11T18:12:17.079Z,-1.21
2024-01-11T18:14:58.577Z,-1.19
2024-01-11T18:17:26.638Z,-1.17
2024-01-11T18:19:53.895Z,-1.22
2024-01-11T18:22:21.441Z,-1.18
2024-01-11T18:24:48.832Z,-1.17
2024-01-11T18:27:17.227Z,-1.21
2024-01-11T18:29:44.798Z,-1.17
2024-01-11T18:32:13.244Z,-1.21
2024-01-11T18:34:41.499Z,-1.21
2024-01-11T18:37:21.061Z,-1.19
2024-01-11T18:40:04.463Z,-1.21
2024-01-11T18:42:33.441Z,-1.20
2024-01-11T18:45:01.147Z,-1.19
2024-01-11T18:47:29.003Z,-1.14
2024-01-11T18:49:56.200Z,-1.15
2024-01-11T18:52:23.771Z,-1.10
2024-01-11T18:54:54.647Z,-1.13
2024-01-11T18:57:28.593Z,-1.10
2024-01-11T19:00:21.998Z,-1.05
2024-01-11T19:02:59.845Z,-1.06
2024-01-11T19:06:46.287Z,-1.06
2024-01-11T19:09:16.751Z,-1.08
2024-01-11T19:11:45.549Z,-1.06
2024-01-11T19:14:15.623Z,-1.04
2024-01-11T19:16:44.941Z,-1.04
2024-01-11T19:19:12.745Z,-1.02
2024-01-11T19:21:39.814Z,-1.03
2024-01-11T19:24:46.781Z,-1.05
2024-01-11T19:27:14.306Z,-1.03
2024-01-11T19:29:42.672Z,-1.08
2024-01-11T19:32:09.939Z,-1.06
2024-01-11T19:34:40.511Z,-1.04
2024-01-11T19:37:12.730Z,-1.04
2024-01-11T19:39:41.637Z,-1.03
2024-01-11T19:42:13.986Z,-1.07
2024-01-11T19:44:54.748Z,-1.09
2024-01-11T19:47:23.400Z,-1.06
2024-01-11T19:49:56.667Z,-1.00
2024-01-11T19:52:27.764Z,-1.00
2024-01-11T19:54:55.507Z,-1.06
2024-01-11T19:57:24.534Z,-1.05
2024-01-11T20:00:02.033Z,-1.06
2024-01-11T20:02:38.242Z,-1.05
2024-01-11T20:05:07.003Z,-1.06
2024-01-11T20:07:35.355Z,-1.08
2024-01-11T20:10:10.510Z,-1.06
2024-01-11T20:12:43.582Z,-1.11
2024-01-11T20:15:11.207Z,-1.06
2024-01-11T20:17:42.306Z,-1.01
2024-01-11T20:20:14.619Z,-0.99
2024-01-11T20:22:41.841Z,-1.00
2024-01-11T20:25:13.661Z,-0.98
2024-01-11T20:27:46.833Z,-0.99
2024-01-11T20:30:17.327Z,-0.97
2024-01-11T20:32:44.754Z,-0.94
2024-01-11T20:35:13.829Z,-0.95
2024-01-11T20:37:41.849Z,-0.96
2024-01-11T20:40:12.403Z,-0.96
2024-01-11T20:42:40.578Z,-0.94
2024-01-11T20:45:10.545Z,-0.96
2024-01-11T20:47:40.468Z,-0.95
2024-01-11T20:50:09.498Z,-0.92
2024-01-11T20:52:37.138Z,-0.87
2024-01-11T20:55:05.198Z,-0.88
2024-01-11T20:57:33.705Z,-0.90
2024-01-11T21:00:02.260Z,-0.86
2024-01-11T21:02:30.585Z,-0.91
2024-01-11T21:04:57.920Z,-0.89
2024-01-11T21:07:25.936Z,-0.91
2024-01-11T21:09:54.786Z,-0.95
2024-01-11T21:12:21.989Z,-0.95
2024-01-11T21:14:49.503Z,-0.95
2024-01-11T21:17:16.639Z,-0.94
2024-01-11T21:19:45.869Z,-0.96
2024-01-11T21:22:13.958Z,-0.95
2024-01-11T21:24:41.534Z,-0.96
2024-01-11T21:27:08.581Z,-0.96
2024-01-11T21:29:45.228Z,-0.91
2024-01-11T21:32:37.918Z,-0.88
2024-01-11T21:35:13.670Z,-0.90
2024-01-11T21:37:49.487Z,-0.92
2024-01-11T21:40:21.161Z,-0.91
2024-01-11T21:42:48.241Z,-0.91
2024-01-11T21:45:15.622Z,-0.92
2024-01-11T21:47:43.044Z,-0.92
2024-01-11T21:50:11.476Z,-0.91
2024-01-11T21:52:39.071Z,-0.86
2024-01-11T21:55:08.300Z,-0.86
2024-01-11T21:57:35.342Z,-0.89
2024-01-11T22:00:02.820Z,-0.95
2024-01-11T22:02:32.624Z,-0.94
2024-01-11T22:05:05.578Z,-0.97
2024-01-11T22:07:32.890Z,-0.93
2024-01-11T22:10:02.603Z,-0.99
2024-01-11T22:12:30.480Z,-0.99
2024-01-11T22:14:57.760Z,-0.94
2024-01-11T22:17:25.125Z,-0.94
2024-01-11T22:19:52.580Z,-0.97
2024-01-11T22:22:22.018Z,-0.98
2024-01-11T22:24:52.984Z,-1.01
2024-01-11T22:27:25.837Z,-1.03
2024-01-11T22:29:53.925Z,-1.08
2024-01-11T22:32:21.000Z,-1.09
2024-01-11T22:34:48.699Z,-1.06
2024-01-11T22:37:16.428Z,-1.04
2024-01-11T22:39:44.563Z,-1.02
2024-01-11T22:42:13.167Z,-1.06
2024-01-11T22:44:40.649Z,-1.05
2024-01-11T22:47:07.722Z,-1.01
2024-01-11T22:49:43.322Z,-1.00
2024-01-11T22:52:10.506Z,-1.01
2024-01-11T22:54:41.287Z,-0.96
2024-01-11T22:57:09.018Z,-0.95
2024-01-11T22:59:42.260Z,-0.95
2024-01-11T23:02:28.353Z,-0.99
2024-01-11T23:04:59.950Z,-0.96
2024-01-11T23:07:35.864Z,-0.97
2024-01-11T23:10:08.089Z,-0.98
2024-01-11T23:13:00.166Z,-1.03
2024-01-11T23:15:34.732Z,-0.97
2024-01-11T23:18:09.733Z,-0.94
2024-01-11T23:20:51.339Z,-0.95
2024-01-11T23:23:34.542Z,-0.97
2024-01-11T23:26:02.099Z,-0.92
2024-01-11T23:28:40.303Z,-0.87
2024-01-11T23:31:23.372Z,-0.86
2024-01-11T23:33:53.883Z,-0.96
2024-01-11T23:36:24.874Z,-0.94
2024-01-11T23:38:52.928Z,-0.99
2024-01-11T23:41:22.933Z,-0.93
2024-01-11T23:43:56.116Z,-0.93
2024-01-11T23:46:23.457Z,-0.92
2024-01-11T23:48:50.501Z,-0.92
2024-01-11T23:51:30.706Z,-0.91
2024-01-11T23:53:59.400Z,-0.89
2024-01-11T23:56:31.278Z,-0.84
2024-01-11T23:59:00.939Z,-0.84
